Time;durP1;ratioP1;P1;durP2;ratioP2;P2;SDS_P1;SDS_P2;PMS_P1;PMS_P2;Temp;Humidity;BMP_temperature;BMP_pressure;BME280_temperature;BME280_humidity;BME280_pressure;Samples;Min_cycle;Max_cycle;Signal;HPM_P1;HPM_P2
2023/01/05 00:02:20;;;;;;;1.40;1.10;;;10.70;99.90;;;;;;5029671;28;20220;-92
2023/01/05 00:07:35;;;;;;;1.75;1.58;;;10.50;99.90;;;;;;5193276;22;20223;-91
2023/01/05 00:26:45;;;;;;;1.30;1.00;;;10.40;99.90;;;;;;5170466;23;20234;-89
2023/01/05 01:12:58;;;;;;;4.18;2.85;;;10.60;99.90;;;;;;5050287;28;20423;-88
2023/01/05 01:15:32;;;;;;;3.83;0.95;;;11.70;99.90;;;;;;5053978;28;20196;-90
2023/01/05 01:18:15;;;;;;;1.20;0.82;;;11.20;99.90;;;;;;5046870;28;20210;-87
2023/01/05 01:20:47;;;;;;;1.25;0.60;;;10.70;99.90;;;;;;5047435;28;20223;-88
2023/01/05 01:25:58;;;;;;;2.58;0.80;;;10.80;99.90;;;;;;5353318;23;20329;-87
2023/01/05 01:30:59;;;;;;;1.13;0.73;;;10.90;99.90;;;;;;5408996;22;20367;-88
2023/01/05 01:33:39;;;;;;;0.63;0.63;;;11.00;99.90;;;;;;5118074;23;20230;-90
2023/01/05 01:36:07;;;;;;;1.50;1.00;;;11.00;99.90;;;;;;5124348;22;20224;-87
2023/01/05 01:38:35;;;;;;;0.95;0.95;;;11.10;99.90;;;;;;5206802;22;20249;-86
2023/01/05 01:41:12;;;;;;;0.82;0.80;;;11.30;99.90;;;;;;5209450;23;20230;-91
2023/01/05 01:54:26;;;;;;;4.85;1.27;;;11.10;99.90;;;;;;6234616;22;2330044;-89
2023/01/05 01:56:55;;;;;;;5.22;0.90;;;11.10;99.90;;;;;;6270092;22;20183;-90
2023/01/05 01:59:28;;;;;;;6.38;1.52;;;12.00;99.90;;;;;;6272853;22;20163;-89
2023/01/05 02:02:00;;;;;;;1.13;0.88;;;10.40;99.90;;;;;;6271353;22;20189;-89
2023/01/05 02:04:32;;;;;;;2.80;1.30;;;11.70;99.90;;;;;;6273997;22;20158;-88
2023/01/05 02:07:21;;;;;;;1.85;0.82;;;11.10;99.90;;;;;;6276406;22;20667;-91
2023/01/05 02:09:50;;;;;;;1.70;0.80;;;12.40;99.90;;;;;;6276015;22;20189;-87
2023/01/05 02:12:35;;;;;;;1.85;0.95;;;11.20;99.90;;;;;;6273207;22;20488;-90
2023/01/05 02:15:13;;;;;;;1.25;1.08;;;11.40;99.90;;;;;;6274458;22;20188;-87
2023/01/05 02:20:31;;;;;;;2.05;0.90;;;10.50;99.90;;;;;;6234912;22;20199;-88
2023/01/05 02:26:32;;;;;;;0.85;0.80;;;10.30;99.90;;;;;;6191340;22;20274;-89
2023/01/05 02:29:22;;;;;;;4.35;1.48;;;10.50;99.90;;;;;;6239314;23;20158;-88
2023/01/05 02:32:11;;;;;;;1.73;0.75;;;10.50;99.90;;;;;;6212910;23;20182;-85
2023/01/05 02:35:05;;;;;;;0.98;0.82;;;10.40;99.90;;;;;;6208589;23;20361;-86
2023/01/05 02:37:56;;;;;;;1.75;1.05;;;10.40;99.90;;;;;;6238015;23;20224;-88
2023/01/05 02:40:37;;;;;;;3.60;1.00;;;10.50;99.90;;;;;;6240018;22;20201;-85
2023/01/05 02:43:21;;;;;;;3.42;0.75;;;10.70;99.90;;;;;;6192636;23;20238;-91
2023/01/05 02:46:06;;;;;;;7.60;1.33;;;10.70;99.90;;;;;;6238823;23;20198;-86
2023/01/05 02:48:43;;;;;;;2.90;0.95;;;11.00;99.90;;;;;;6218371;23;20175;-88
2023/01/05 02:51:36;;;;;;;2.80;1.10;;;10.70;99.90;;;;;;6218786;23;20186;-88
2023/01/05 02:54:38;;;;;;;0.82;0.60;;;10.70;99.90;;;;;;6209874;23;20183;-87
2023/01/05 02:57:17;;;;;;;3.38;1.20;;;10.70;99.90;;;;;;6181835;23;20179;-86
2023/01/05 02:59:55;;;;;;;1.33;0.93;;;10.80;99.90;;;;;;6155143;22;20251;-85
2023/01/05 03:02:29;;;;;;;3.63;0.80;;;11.10;99.90;;;;;;6200805;23;20211;-85
2023/01/05 03:05:14;;;;;;;2.65;1.15;;;10.70;99.90;;;;;;6190396;23;20214;-88
2023/01/05 03:13:58;;;;;;;1.08;0.95;;;10.50;99.90;;;;;;6230199;23;20225;-85
2023/01/05 03:16:36;;;;;;;3.40;1.02;;;10.80;99.90;;;;;;6212521;23;20151;-86
2023/01/05 03:36:24;;;;;;;3.25;1.30;;;10.80;99.90;;;;;;6236993;23;20229;-86
2023/01/05 03:38:56;;;;;;;2.10;1.20;;;10.80;99.90;;;;;;6204560;23;20529;-89
2023/01/05 03:41:25;;;;;;;1.30;1.10;;;10.70;99.90;;;;;;6174866;22;20221;-87
2023/01/05 03:44:08;;;;;;;2.75;0.80;;;10.80;99.90;;;;;;6183133;23;20235;-90
2023/01/05 03:46:37;;;;;;;1.67;0.73;;;11.50;99.90;;;;;;6171391;23;20176;-84
2023/01/05 03:49:05;;;;;;;3.67;1.05;;;10.80;99.90;;;;;;6183603;23;20184;-92
2023/01/05 03:51:49;;;;;;;2.22;2.03;;;10.80;99.90;;;;;;6196561;22;20209;-87
2023/01/05 03:57:18;;;;;;;3.15;1.00;;;10.90;99.90;;;;;;6223478;22;20233;-88
2023/01/05 03:59:55;;;;;;;2.15;1.02;;;11.20;99.90;;;;;;6184378;23;20197;-92
2023/01/05 04:02:22;;;;;;;1.90;1.50;;;10.70;99.90;;;;;;6171741;23;20206;-88
2023/01/05 04:04:51;;;;;;;1.55;1.05;;;10.90;99.90;;;;;;6222340;23;20235;-83
2023/01/05 04:07:22;;;;;;;5.75;1.67;;;10.70;99.90;;;;;;6221895;23;20272;-84
2023/01/05 04:09:49;;;;;;;5.43;1.45;;;10.80;99.90;;;;;;6195324;23;20612;-84
2023/01/05 04:12:16;;;;;;;1.00;0.80;;;10.50;99.90;;;;;;6201131;23;20207;-87
2023/01/05 04:14:50;;;;;;;2.33;1.05;;;10.10;99.90;;;;;;6199628;23;20187;-86
2023/01/05 04:17:26;;;;;;;1.40;1.20;;;10.20;99.90;;;;;;6204141;23;20172;-87
2023/01/05 04:19:55;;;;;;;4.22;0.98;;;10.10;99.90;;;;;;6226908;23;20184;-86
2023/01/05 04:22:22;;;;;;;2.05;1.13;;;10.10;99.90;;;;;;6227977;23;20196;-90
2023/01/05 04:24:53;;;;;;;5.13;1.55;;;10.10;99.90;;;;;;6194733;22;20220;-90
2023/01/05 04:27:20;;;;;;;1.65;1.02;;;9.90;99.90;;;;;;6210729;23;20186;-85
2023/01/05 04:29:47;;;;;;;2.72;0.85;;;10.00;99.90;;;;;;6209124;23;20202;-91
2023/01/05 04:32:18;;;;;;;6.00;1.50;;;9.90;99.90;;;;;;6207794;22;20533;-91
2023/01/05 04:34:46;;;;;;;3.25;1.70;;;9.80;99.90;;;;;;6130413;23;20276;-85
2023/01/05 04:39:58;;;;;;;4.63;1.70;;;9.70;99.90;;;;;;6207408;22;20226;-85
2023/01/05 04:42:25;;;;;;;5.95;1.25;;;9.60;99.90;;;;;;6238887;23;20178;-90
2023/01/05 04:44:53;;;;;;;1.95;1.83;;;10.00;99.90;;;;;;6212019;23;20164;-90
2023/01/05 04:47:20;;;;;;;8.68;1.95;;;9.60;99.90;;;;;;6208181;23;20222;-88
2023/01/05 04:49:50;;;;;;;2.33;0.77;;;9.60;99.90;;;;;;6210039;23;20186;-89
2023/01/05 04:52:28;;;;;;;3.28;1.40;;;9.50;99.90;;;;;;6183943;23;20167;-85
2023/01/05 04:54:55;;;;;;;1.90;1.00;;;9.90;99.90;;;;;;6205250;23;20193;-87
2023/01/05 04:57:25;;;;;;;3.90;2.30;;;9.40;99.90;;;;;;6207365;23;20183;-89
2023/01/05 04:59:52;;;;;;;3.95;1.27;;;9.30;99.90;;;;;;6199544;23;20221;-86
2023/01/05 05:02:21;;;;;;;2.60;0.85;;;9.20;99.90;;;;;;6201028;23;20185;-86
2023/01/05 05:04:52;;;;;;;0.85;0.65;;;9.30;99.90;;;;;;6199720;23;20197;-87
2023/01/05 05:07:19;;;;;;;2.42;1.08;;;9.20;99.90;;;;;;6198352;23;20182;-84
2023/01/05 05:09:50;;;;;;;6.13;1.10;;;9.20;99.90;;;;;;6199385;23;20178;-86
2023/01/05 05:12:20;;;;;;;4.47;3.33;;;9.30;99.90;;;;;;6199595;23;20217;-86
2023/01/05 05:14:49;;;;;;;1.30;1.15;;;9.40;99.90;;;;;;6200212;23;20171;-86
2023/01/05 05:17:17;;;;;;;9.65;1.45;;;9.00;99.90;;;;;;6198221;23;20537;-87
2023/01/05 05:19:44;;;;;;;3.45;1.15;;;8.90;99.90;;;;;;6199281;23;20292;-86
2023/01/05 05:22:13;;;;;;;4.53;2.67;;;8.80;99.90;;;;;;6225662;23;20182;-89
2023/01/05 05:24:41;;;;;;;1.75;0.60;;;8.60;99.90;;;;;;6224519;23;20187;-88
2023/01/05 05:27:09;;;;;;;1.00;0.70;;;8.70;99.90;;;;;;6202407;23;20178;-87
2023/01/05 05:29:36;;;;;;;0.88;0.82;;;9.20;99.90;;;;;;6232729;23;20230;-84
2023/01/05 05:32:07;;;;;;;0.70;0.63;;;8.60;99.90;;;;;;6230612;23;20190;-85
2023/01/05 05:34:40;;;;;;;3.13;1.15;;;8.50;99.90;;;;;;6227320;23;20243;-86
2023/01/05 05:37:07;;;;;;;5.47;1.55;;;9.40;99.90;;;;;;6199137;23;20181;-86
2023/01/05 05:39:37;;;;;;;2.05;0.85;;;9.20;99.90;;;;;;6234443;23;20358;-86
2023/01/05 05:42:04;;;;;;;4.47;2.00;;;8.90;99.90;;;;;;6252776;23;20209;-88
2023/01/05 05:44:31;;;;;;;6.18;2.53;;;8.70;99.90;;;;;;6228884;23;20225;-86
2023/01/05 05:47:00;;;;;;;2.45;1.27;;;8.90;99.90;;;;;;6231241;23;20420;-87
2023/01/05 05:49:28;;;;;;;5.18;3.10;;;8.80;99.90;;;;;;6226914;23;20348;-84
2023/01/05 05:51:56;;;;;;;1.65;1.55;;;8.70;99.90;;;;;;6229424;23;20182;-86
2023/01/05 05:54:24;;;;;;;3.63;1.45;;;9.60;99.90;;;;;;6253876;23;20474;-86
2023/01/05 05:56:53;;;;;;;4.60;1.65;;;8.80;99.90;;;;;;6227589;23;20185;-87
2023/01/05 05:59:26;;;;;;;9.75;2.08;;;8.70;99.90;;;;;;6255453;23;20162;-86
2023/01/05 06:01:56;;;;;;;2.55;1.45;;;8.80;99.90;;;;;;6231273;23;20489;-83
2023/01/05 06:04:26;;;;;;;2.45;1.90;;;8.90;99.90;;;;;;6228858;23;20197;-84
2023/01/05 06:06:54;;;;;;;5.75;1.80;;;9.00;99.90;;;;;;6230440;23;20179;-84
2023/01/05 06:09:23;;;;;;;1.63;0.82;;;9.00;99.90;;;;;;6253150;23;20185;-85
2023/01/05 06:12:02;;;;;;;0.70;0.70;;;9.20;99.90;;;;;;6228344;23;20396;-88
2023/01/05 06:14:30;;;;;;;1.23;0.80;;;9.20;99.90;;;;;;6226896;23;20185;-86
2023/01/05 06:17:07;;;;;;;4.88;1.45;;;9.10;99.90;;;;;;6253988;23;20192;-85
2023/01/05 06:19:35;;;;;;;1.60;1.33;;;9.20;99.90;;;;;;6227589;23;20220;-86
2023/01/05 06:22:06;;;;;;;0.73;0.70;;;9.10;99.90;;;;;;6226811;23;20197;-83
2023/01/05 06:24:33;;;;;;;1.02;0.93;;;9.20;99.90;;;;;;6201152;23;20210;-83
2023/01/05 06:27:00;;;;;;;2.60;1.17;;;9.20;99.90;;;;;;6257789;23;20209;-83
2023/01/05 06:29:30;;;;;;;2.30;1.58;;;9.20;99.90;;;;;;6227880;23;20212;-83
2023/01/05 06:31:57;;;;;;;2.42;1.23;;;9.10;99.90;;;;;;6253831;23;20185;-85
2023/01/05 06:34:25;;;;;;;3.25;1.02;;;9.10;99.90;;;;;;6253930;23;20181;-83
2023/01/05 06:36:54;;;;;;;1.85;1.40;;;9.20;99.90;;;;;;6226260;23;20412;-83
2023/01/05 06:39:28;;;;;;;2.88;1.15;;;9.10;99.90;;;;;;6253058;23;20217;-84
2023/01/05 06:41:56;;;;;;;1.25;1.08;;;9.10;99.90;;;;;;6226269;23;20227;-84
2023/01/05 06:44:24;;;;;;;5.35;2.47;;;8.90;99.90;;;;;;6252516;23;20210;-84
2023/01/05 06:46:52;;;;;;;1.10;0.95;;;9.60;99.90;;;;;;6252864;23;20178;-86
2023/01/05 06:49:21;;;;;;;3.35;1.48;;;9.10;99.90;;;;;;6254397;23;20181;-82
2023/01/05 06:51:49;;;;;;;2.92;0.90;;;9.20;99.90;;;;;;6252825;23;20211;-87
2023/01/05 06:54:18;;;;;;;2.90;0.80;;;9.20;99.90;;;;;;6231364;23;20186;-85
2023/01/05 06:56:45;;;;;;;2.60;1.00;;;9.30;99.90;;;;;;6233471;23;20209;-83
2023/01/05 06:59:13;;;;;;;1.10;1.00;;;9.70;99.90;;;;;;6258221;23;20190;-84
2023/01/05 07:01:41;;;;;;;3.03;1.10;;;9.30;99.90;;;;;;6228860;23;20198;-82
2023/01/05 07:04:10;;;;;;;1.35;0.95;;;9.40;99.90;;;;;;6254020;23;20225;-83
2023/01/05 07:06:39;;;;;;;1.55;0.90;;;9.30;99.90;;;;;;6251835;23;20517;-87
2023/01/05 07:09:07;;;;;;;1.55;1.20;;;9.40;99.90;;;;;;6252780;23;20235;-82
2023/01/05 07:11:34;;;;;;;1.75;1.00;;;9.30;99.90;;;;;;6252887;23;20188;-85
2023/01/05 07:14:03;;;;;;;3.53;1.15;;;9.40;99.90;;;;;;6251814;23;20211;-88
2023/01/05 07:16:30;;;;;;;1.73;1.13;;;9.50;99.90;;;;;;6227018;23;20205;-83
2023/01/05 07:18:58;;;;;;;3.53;1.95;;;9.40;99.90;;;;;;6251274;23;20195;-86
2023/01/05 07:21:24;;;;;;;2.35;1.13;;;9.60;99.90;;;;;;6251875;23;20189;-83
2023/01/05 07:23:53;;;;;;;2.00;1.23;;;9.40;99.90;;;;;;6251816;23;20206;-84
2023/01/05 07:26:19;;;;;;;1.60;1.23;;;9.50;99.90;;;;;;6254066;23;20217;-83
2023/01/05 07:28:47;;;;;;;3.80;1.23;;;9.50;99.90;;;;;;6252442;23;20224;-83
2023/01/05 07:31:14;;;;;;;2.22;1.55;;;9.70;99.90;;;;;;6227459;23;20220;-84
2023/01/05 07:33:44;;;;;;;2.90;1.75;;;9.50;99.90;;;;;;6252746;23;20560;-85
2023/01/05 07:36:12;;;;;;;2.92;1.38;;;9.90;99.90;;;;;;6227167;23;20191;-83
2023/01/05 07:38:39;;;;;;;1.35;1.15;;;9.60;99.90;;;;;;6252576;23;20178;-86
2023/01/05 07:41:07;;;;;;;2.40;1.50;;;9.70;99.90;;;;;;6260329;23;20224;-85
2023/01/05 07:43:34;;;;;;;3.03;1.20;;;9.80;99.90;;;;;;6265218;23;20201;-82
2023/01/05 07:46:04;;;;;;;3.75;1.30;;;9.90;99.90;;;;;;6257143;23;20213;-83
2023/01/05 07:48:31;;;;;;;5.05;1.77;;;9.80;99.90;;;;;;6255452;23;20575;-82
2023/01/05 07:51:03;;;;;;;3.47;1.67;;;10.10;99.90;;;;;;6260940;23;20173;-83
2023/01/05 07:53:34;;;;;;;2.95;0.93;;;9.90;99.90;;;;;;6256890;23;20165;-83
2023/01/05 07:56:11;;;;;;;6.07;2.30;;;10.00;99.90;;;;;;6260303;22;20201;-82
2023/01/05 07:58:39;;;;;;;2.08;1.17;;;9.90;99.90;;;;;;6246284;22;20163;-85
2023/01/05 08:01:10;;;;;;;2.58;1.00;;;10.00;99.90;;;;;;6242444;22;20190;-83
2023/01/05 08:03:37;;;;;;;2.00;1.80;;;10.00;99.90;;;;;;6255417;23;20209;-83
2023/01/05 08:06:08;;;;;;;6.80;1.80;;;10.30;99.90;;;;;;6253835;23;20182;-82
2023/01/05 08:08:35;;;;;;;4.85;1.70;;;10.10;99.90;;;;;;6230899;23;20513;-83
2023/01/05 08:11:04;;;;;;;4.22;1.60;;;10.10;99.90;;;;;;6230415;23;20185;-85
2023/01/05 08:16:17;;;;;;;7.43;2.28;;;10.00;99.90;;;;;;6256228;23;20411;-83
2023/01/05 08:18:44;;;;;;;3.22;1.50;;;10.10;99.90;;;;;;6256854;23;20216;-85
2023/01/05 08:21:12;;;;;;;4.95;1.65;;;10.10;99.90;;;;;;6258625;23;20165;-82
2023/01/05 08:23:41;;;;;;;2.05;1.40;;;10.20;99.90;;;;;;6259528;23;20205;-84
2023/01/05 08:26:12;;;;;;;4.85;1.70;;;10.10;99.90;;;;;;6205958;23;20522;-86
2023/01/05 08:28:39;;;;;;;5.20;1.95;;;10.30;99.90;;;;;;6229167;23;20174;-82
2023/01/05 08:31:13;;;;;;;3.97;1.38;;;10.30;99.90;;;;;;6229947;23;20198;-87
2023/01/05 08:33:46;;;;;;;6.30;1.27;;;10.90;99.90;;;;;;6220480;23;20166;-84
2023/01/05 08:36:17;;;;;;;1.70;1.60;;;10.30;99.90;;;;;;6264667;23;20198;-87
2023/01/05 08:38:47;;;;;;;5.20;1.48;;;10.20;99.90;;;;;;6235857;23;20201;-86
2023/01/05 08:41:23;;;;;;;3.10;1.60;;;10.80;99.90;;;;;;6232575;23;20226;-84
2023/01/05 08:43:54;;;;;;;5.13;1.20;;;10.40;99.90;;;;;;6231195;22;20212;-82
2023/01/05 08:46:25;;;;;;;8.20;1.70;;;11.60;99.90;;;;;;6253821;23;20225;-83
2023/01/05 08:48:56;;;;;;;2.25;1.38;;;10.80;99.90;;;;;;6256915;23;20175;-86
2023/01/05 08:51:24;;;;;;;3.08;1.33;;;10.70;99.90;;;;;;6229601;23;20206;-83
2023/01/05 08:53:51;;;;;;;4.53;1.15;;;10.50;99.90;;;;;;6251828;23;20221;-85
2023/01/05 08:56:26;;;;;;;8.48;1.85;;;10.60;99.90;;;;;;6251708;23;20520;-85
2023/01/05 08:59:02;;;;;;;4.60;1.65;;;10.70;99.90;;;;;;6253457;23;20224;-84
2023/01/05 09:01:30;;;;;;;3.72;1.63;;;;;;;;;;6226859;23;20246;-88
2023/01/05 09:04:00;;;;;;;5.03;1.83;;;12.30;99.90;;;;;;6250937;23;20197;-87
2023/01/05 09:06:26;;;;;;;7.97;1.75;;;10.80;99.90;;;;;;6251255;23;20552;-82
2023/01/05 09:08:54;;;;;;;4.10;1.48;;;11.10;99.90;;;;;;6224252;23;20545;-84
2023/01/05 09:11:24;;;;;;;6.20;1.33;;;10.90;99.90;;;;;;6224968;23;20268;-82
2023/01/05 09:13:56;;;;;;;4.28;1.60;;;10.80;99.90;;;;;;6225570;23;20183;-82
2023/01/05 09:16:28;;;;;;;5.05;1.98;;;10.80;99.90;;;;;;6252233;23;20718;-85
2023/01/05 09:19:15;;;;;;;3.65;1.40;;;10.90;99.90;;;;;;6251885;23;20175;-83
2023/01/05 09:21:43;;;;;;;2.05;1.48;;;10.80;99.90;;;;;;6252121;23;20193;-82
2023/01/05 09:24:13;;;;;;;1.27;1.00;;;10.90;99.90;;;;;;6250946;23;20248;-84
2023/01/05 09:26:41;;;;;;;1.38;1.27;;;10.80;99.90;;;;;;6252084;23;20183;-87
2023/01/05 09:29:12;;;;;;;3.08;1.10;;;11.50;99.90;;;;;;6251002;23;20187;-88
2023/01/05 09:31:40;;;;;;;2.90;1.58;;;10.60;99.90;;;;;;6227269;23;20185;-84
2023/01/05 09:34:08;;;;;;;1.73;1.02;;;;;;;;;;6252017;23;20246;-87
2023/01/05 09:36:39;;;;;;;5.18;1.60;;;10.70;99.90;;;;;;6225394;23;20197;-84
2023/01/05 09:39:08;;;;;;;1.63;1.50;;;11.10;99.90;;;;;;6251027;23;20167;-89
2023/01/05 09:41:48;;;;;;;3.38;1.60;;;10.20;99.90;;;;;;6228001;23;20177;-86
2023/01/05 09:44:39;;;;;;;6.53;2.45;;;11.60;99.90;;;;;;6248916;23;20212;-84
2023/01/05 09:47:13;;;;;;;3.97;2.20;;;;;;;;;;6252247;23;20185;-89
2023/01/05 09:49:42;;;;;;;4.47;1.80;;;9.80;99.90;;;;;;6227527;23;20184;-85
2023/01/05 09:52:11;;;;;;;2.83;2.20;;;10.80;99.90;;;;;;6202963;23;20185;-88
2023/01/05 09:54:41;;;;;;;7.57;3.10;;;10.60;99.90;;;;;;6253835;23;20186;-87
2023/01/05 09:57:20;;;;;;;3.03;2.05;;;9.90;99.90;;;;;;6252722;23;20184;-85
2023/01/05 09:59:56;;;;;;;5.80;2.15;;;10.90;99.90;;;;;;6252561;23;20170;-86
2023/01/05 10:02:32;;;;;;;5.20;1.67;;;10.10;99.90;;;;;;6227475;23;20477;-85
2023/01/05 10:05:01;;;;;;;2.65;1.60;;;10.30;99.90;;;;;;6227950;23;20193;-83
2023/01/05 10:07:44;;;;;;;4.65;2.10;;;10.80;99.90;;;;;;6228791;23;20450;-82
2023/01/05 10:10:44;;;;;;;4.65;2.28;;;10.40;99.90;;;;;;6229536;23;20176;-84
2023/01/05 10:13:25;;;;;;;3.90;2.70;;;10.90;99.90;;;;;;6230237;23;20230;-83
2023/01/05 10:15:57;;;;;;;3.55;1.30;;;;;;;;;;6231177;23;20181;-84
2023/01/05 10:18:29;;;;;;;4.13;2.65;;;10.70;99.90;;;;;;6256490;23;20188;-86
2023/01/05 10:21:18;;;;;;;3.75;2.13;;;10.60;99.90;;;;;;6254373;23;20192;-83
2023/01/05 10:23:51;;;;;;;4.82;1.75;;;11.40;99.90;;;;;;6258226;23;20159;-84
2023/01/05 10:26:57;;;;;;;2.45;1.60;;;10.70;99.90;;;;;;6253463;23;20548;-87
2023/01/05 10:29:46;;;;;;;2.78;1.55;;;10.80;99.90;;;;;;6239230;23;20546;-82
2023/01/05 10:32:45;;;;;;;7.15;2.03;;;10.80;99.90;;;;;;6254074;23;20182;-88
2023/01/05 10:35:23;;;;;;;2.38;2.17;;;;;;;;;;6254787;23;20390;-81
2023/01/05 10:38:30;;;;;;;3.90;1.75;;;11.30;99.90;;;;;;6253132;23;20374;-89
2023/01/05 10:41:28;;;;;;;3.05;1.65;;;11.50;99.90;;;;;;6218298;23;20237;-83
2023/01/05 10:44:20;;;;;;;3.08;2.15;;;11.80;99.90;;;;;;6222643;23;20195;-87
2023/01/05 10:46:54;;;;;;;1.75;1.65;;;11.70;99.90;;;;;;6252569;23;20246;-85
2023/01/05 10:49:27;;;;;;;1.80;1.30;;;11.50;99.90;;;;;;6253750;23;20183;-86
2023/01/05 10:51:57;;;;;;;5.05;1.13;;;11.30;99.90;;;;;;6206341;23;20186;-87
2023/01/05 10:54:48;;;;;;;1.27;0.50;;;9.50;99.90;;;;;;6232630;23;20182;-88
2023/01/05 10:57:36;;;;;;;0.90;0.65;;;8.60;99.90;;;;;;6234463;23;20500;-89
2023/01/05 11:00:22;;;;;;;1.58;1.00;;;8.20;99.90;;;;;;6235706;23;20206;-91
2023/01/05 11:03:01;;;;;;;1.92;1.20;;;8.00;99.90;;;;;;6241292;23;20175;-90
2023/01/05 11:05:36;;;;;;;1.58;0.85;;;8.00;99.90;;;;;;6237826;23;20225;-88
2023/01/05 11:08:17;;;;;;;2.40;1.20;;;8.00;99.90;;;;;;6233927;23;20200;-88
2023/01/05 11:10:57;;;;;;;1.50;1.00;;;7.90;99.90;;;;;;6232738;23;20223;-86
2023/01/05 11:13:35;;;;;;;2.67;2.20;;;7.90;99.90;;;;;;6234781;23;20530;-88
2023/01/05 11:16:12;;;;;;;1.30;1.00;;;7.80;99.90;;;;;;6233912;23;20156;-89
2023/01/05 11:18:59;;;;;;;1.35;0.82;;;7.80;99.90;;;;;;6235795;23;20164;-92
2023/01/05 11:21:38;;;;;;;1.17;0.70;;;7.80;99.90;;;;;;6236108;23;20319;-91
2023/01/05 11:24:31;;;;;;;1.13;0.85;;;7.90;99.90;;;;;;6261609;23;20179;-90
2023/01/05 11:27:22;;;;;;;1.35;0.95;;;7.90;99.90;;;;;;6235062;23;20590;-91
2023/01/05 11:30:15;;;;;;;1.55;0.88;;;8.00;99.90;;;;;;6215431;23;20168;-90
2023/01/05 11:32:49;;;;;;;2.90;1.40;;;7.90;99.90;;;;;;6261984;23;20196;-90
2023/01/05 11:35:29;;;;;;;1.58;0.88;;;7.80;99.90;;;;;;6236556;23;20191;-89
2023/01/05 11:38:00;;;;;;;2.05;0.82;;;7.90;99.90;;;;;;6236680;22;20532;-88
2023/01/05 11:40:33;;;;;;;2.20;1.85;;;7.90;99.90;;;;;;6263433;23;20214;-89
2023/01/05 11:43:11;;;;;;;5.15;1.60;;;7.90;99.90;;;;;;6214959;22;20155;-89
2023/01/05 11:45:55;;;;;;;2.03;1.63;;;8.00;99.90;;;;;;6270389;22;20188;-89
2023/01/05 11:48:33;;;;;;;1.92;1.50;;;8.00;99.90;;;;;;6215392;23;20190;-90
2023/01/05 11:51:03;;;;;;;1.52;1.38;;;8.00;99.90;;;;;;6263810;23;20180;-91
2023/01/05 11:53:33;;;;;;;1.98;1.58;;;8.00;99.90;;;;;;6235716;23;20176;-88
2023/01/05 11:56:07;;;;;;;2.92;2.25;;;8.10;99.90;;;;;;6233156;23;20367;-88
2023/01/05 11:58:44;;;;;;;3.25;1.50;;;8.10;99.90;;;;;;6233267;23;20212;-86
2023/01/05 12:01:40;;;;;;;2.60;2.42;;;8.10;99.90;;;;;;6258198;23;20159;-88
2023/01/05 12:04:54;;;;;;;4.40;2.65;;;8.10;99.90;;;;;;6253819;23;20218;-89
2023/01/05 12:07:37;;;;;;;2.95;2.30;;;8.10;99.90;;;;;;6232557;23;20175;-89
2023/01/05 12:10:54;;;;;;;3.67;2.38;;;8.00;99.90;;;;;;6231550;23;20187;-89
2023/01/05 12:13:59;;;;;;;10.00;2.70;;;8.10;99.90;;;;;;6258993;23;20208;-88
2023/01/05 12:16:55;;;;;;;4.72;2.55;;;8.10;99.90;;;;;;6232907;23;20248;-89
2023/01/05 12:19:43;;;;;;;3.78;2.80;;;8.20;99.90;;;;;;6232326;23;20168;-89
2023/01/05 12:22:12;;;;;;;3.08;2.78;;;8.40;99.90;;;;;;6252671;23;20247;-89
2023/01/05 12:25:07;;;;;;;6.55;4.55;;;8.40;99.90;;;;;;6232230;23;20280;-89
2023/01/05 12:27:48;;;;;;;3.28;2.88;;;8.60;99.90;;;;;;6256985;23;20189;-87
2023/01/05 12:30:41;;;;;;;5.72;2.80;;;8.60;99.90;;;;;;6236622;23;20194;-87
2023/01/05 12:33:52;;;;;;;4.75;2.17;;;8.60;99.90;;;;;;6240062;23;20207;-88
2023/01/05 12:36:49;;;;;;;7.63;2.92;;;8.60;99.90;;;;;;6237330;23;20191;-85
2023/01/05 12:39:35;;;;;;;4.90;2.20;;;8.50;99.90;;;;;;6239624;23;20169;-89
2023/01/05 12:42:41;;;;;;;3.15;2.00;;;8.60;99.90;;;;;;6247011;22;20217;-90
2023/01/05 12:45:28;;;;;;;3.65;2.72;;;8.60;99.90;;;;;;6268709;22;20208;-90
2023/01/05 12:48:49;;;;;;;2.42;2.22;;;8.70;99.90;;;;;;6262563;22;20199;-90
2023/01/05 12:51:37;;;;;;;5.18;2.33;;;8.80;99.90;;;;;;6170110;23;20185;-88
2023/01/05 12:54:24;;;;;;;3.65;1.95;;;9.00;99.90;;;;;;6232607;23;20204;-87
2023/01/05 12:57:28;;;;;;;3.35;2.42;;;9.10;99.90;;;;;;6256538;23;20186;-89
2023/01/05 13:00:10;;;;;;;3.60;2.90;;;9.10;99.90;;;;;;6237919;23;20170;-88
2023/01/05 13:03:00;;;;;;;3.78;3.03;;;9.10;99.90;;;;;;6236445;23;20156;-90
2023/01/05 13:06:05;;;;;;;3.35;2.35;;;9.10;99.90;;;;;;6257215;23;20182;-87
2023/01/05 13:08:50;;;;;;;3.53;2.65;;;9.40;99.90;;;;;;6230352;23;20240;-87
2023/01/05 13:11:38;;;;;;;4.07;2.40;;;9.40;99.90;;;;;;6232423;23;20166;-87
2023/01/05 13:14:19;;;;;;;3.83;2.72;;;9.60;99.90;;;;;;6235009;23;20170;-88
2023/01/05 13:17:05;;;;;;;5.38;2.33;;;9.70;99.90;;;;;;6238895;23;20207;-88
2023/01/05 13:19:52;;;;;;;7.50;2.85;;;9.80;99.90;;;;;;6236398;23;20197;-88
2023/01/05 13:22:33;;;;;;;2.33;1.30;;;9.90;99.90;;;;;;6214545;23;20178;-88
2023/01/05 13:25:18;;;;;;;2.17;2.03;;;9.80;99.90;;;;;;6242416;22;20224;-89
2023/01/05 13:27:45;;;;;;;1.25;1.15;;;9.90;99.90;;;;;;6246211;22;20169;-85
2023/01/05 13:30:32;;;;;;;1.65;1.30;;;9.80;99.90;;;;;;6262150;23;20189;-86
2023/01/05 13:34:06;;;;;;;2.00;1.10;;;9.80;99.90;;;;;;6237196;23;20182;-85
2023/01/05 13:36:53;;;;;;;5.80;1.13;;;9.80;99.90;;;;;;6223082;23;20176;-89
2023/01/05 13:39:50;;;;;;;1.95;1.00;;;9.90;99.90;;;;;;6232913;23;20205;-86
2023/01/05 13:42:59;;;;;;;1.15;1.05;;;10.00;99.90;;;;;;6264652;22;20217;-90
2023/01/05 13:45:57;;;;;;;1.02;1.02;;;10.10;99.90;;;;;;6255103;23;20201;-85
2023/01/05 13:48:37;;;;;;;3.17;1.10;;;10.10;99.90;;;;;;6231201;23;20197;-90
2023/01/05 13:51:23;;;;;;;1.30;1.20;;;10.00;99.90;;;;;;6235062;23;20185;-85
2023/01/05 13:54:01;;;;;;;1.10;1.00;;;9.90;99.90;;;;;;6232891;23;20211;-88
2023/01/05 13:56:30;;;;;;;2.05;0.95;;;9.90;99.90;;;;;;6232556;23;20393;-86
2023/01/05 13:59:21;;;;;;;1.95;1.45;;;9.80;99.90;;;;;;6256991;23;20182;-87
2023/01/05 14:02:27;;;;;;;2.80;1.48;;;9.70;99.90;;;;;;6256285;23;20220;-89
2023/01/05 14:04:55;;;;;;;1.75;1.45;;;9.50;99.90;;;;;;6256758;23;20212;-89
2023/01/05 14:07:24;;;;;;;1.40;1.30;;;9.50;99.90;;;;;;6207124;23;20242;-87
2023/01/05 14:10:02;;;;;;;1.58;1.48;;;9.50;99.90;;;;;;6228586;23;20198;-86
2023/01/05 14:12:45;;;;;;;2.08;1.20;;;9.40;99.90;;;;;;6257129;23;20176;-87
2023/01/05 14:15:37;;;;;;;1.80;1.55;;;9.60;99.90;;;;;;6229955;23;20177;-89
2023/01/05 14:18:09;;;;;;;1.65;1.25;;;9.50;99.90;;;;;;6226251;23;20185;-84
2023/01/05 14:21:05;;;;;;;1.75;1.25;;;9.50;99.90;;;;;;6254687;23;20169;-88
2023/01/05 14:23:37;;;;;;;4.57;1.70;;;9.40;99.90;;;;;;6227825;23;20228;-89
2023/01/05 14:26:12;;;;;;;3.90;2.00;;;9.30;99.90;;;;;;6228043;23;20243;-87
2023/01/05 14:28:44;;;;;;;3.15;1.85;;;9.30;99.90;;;;;;6264879;23;20182;-86
2023/01/05 14:31:41;;;;;;;6.20;1.70;;;9.40;99.90;;;;;;6261041;23;20163;-85
2023/01/05 14:34:18;;;;;;;2.75;1.40;;;9.40;99.90;;;;;;6237238;23;20173;-86
2023/01/05 14:37:02;;;;;;;5.75;1.90;;;9.30;99.90;;;;;;6257273;23;20439;-86
2023/01/05 14:39:41;;;;;;;4.13;1.92;;;9.30;99.90;;;;;;6230689;23;20194;-86
2023/01/05 14:42:11;;;;;;;3.20;1.88;;;9.30;99.90;;;;;;6232888;23;20410;-88
2023/01/05 14:44:48;;;;;;;1.83;1.20;;;9.40;99.90;;;;;;6255745;23;20178;-85
2023/01/05 14:47:45;;;;;;;1.80;0.80;;;9.40;99.90;;;;;;6256049;23;20192;-86
2023/01/05 14:50:40;;;;;;;4.85;1.90;;;9.40;99.90;;;;;;6231394;23;20606;-85
2023/01/05 14:53:33;;;;;;;0.95;0.95;;;9.40;99.90;;;;;;6259505;23;20225;-87
2023/01/05 14:56:18;;;;;;;0.93;0.82;;;9.30;99.90;;;;;;6231340;23;20178;-88
2023/01/05 14:59:18;;;;;;;4.80;1.10;;;9.20;99.90;;;;;;6235397;22;20169;-88
2023/01/05 15:02:03;;;;;;;2.50;0.80;;;9.20;99.90;;;;;;6246374;22;20154;-88
2023/01/05 15:04:39;;;;;;;1.73;1.05;;;9.20;99.90;;;;;;6239890;22;20200;-85
2023/01/05 15:07:39;;;;;;;1.95;1.30;;;9.20;99.90;;;;;;6262495;23;20162;-86
2023/01/05 15:10:45;;;;;;;2.15;0.70;;;9.30;99.90;;;;;;6242201;23;20158;-87
2023/01/05 15:13:30;;;;;;;1.45;1.10;;;9.30;99.90;;;;;;6238433;23;20261;-87
2023/01/05 15:16:05;;;;;;;0.50;0.50;;;9.40;99.90;;;;;;6258005;23;20181;-84
2023/01/05 15:19:11;;;;;;;1.00;0.88;;;9.40;99.90;;;;;;6230556;23;20176;-86
2023/01/05 15:22:02;;;;;;;5.88;1.10;;;9.40;99.90;;;;;;6234308;23;20406;-88
2023/01/05 15:24:56;;;;;;;2.70;1.10;;;9.20;99.90;;;;;;6235916;23;20186;-88
2023/01/05 15:27:52;;;;;;;0.70;0.70;;;9.20;99.90;;;;;;6232279;23;20219;-87
2023/01/05 15:30:35;;;;;;;2.38;1.30;;;9.20;99.90;;;;;;6235354;23;20164;-87
2023/01/05 15:33:16;;;;;;;1.50;0.88;;;9.00;99.90;;;;;;6263049;22;20418;-85
2023/01/05 15:36:04;;;;;;;2.50;1.05;;;9.20;99.90;;;;;;6234737;23;20185;-88
2023/01/05 15:38:46;;;;;;;4.00;1.50;;;9.10;99.90;;;;;;6232525;23;20193;-88
2023/01/05 15:41:19;;;;;;;1.40;1.27;;;9.10;99.90;;;;;;6232928;23;20689;-86
2023/01/05 15:43:49;;;;;;;1.90;1.00;;;9.10;99.90;;;;;;6231016;23;20162;-86
2023/01/05 15:46:21;;;;;;;5.47;1.48;;;9.10;99.90;;;;;;6256457;23;20296;-83